createdAt,value
2023-03-31T00:00:59.816Z,28.68
2023-03-31T00:01:59.840Z,28.65
2023-03-31T00:02:59.929Z,28.62
2023-03-31T00:04:00.142Z,28.63
2023-03-31T00:05:00.063Z,28.66
2023-03-31T00:05:59.941Z,28.69
2023-03-31T00:06:59.984Z,28.66
2023-03-31T00:07:59.927Z,28.63
2023-03-31T00:09:00.002Z,28.68
2023-03-31T00:10:16.089Z,28.62
2023-03-31T00:11:00.976Z,28.63
2023-03-31T00:11:59.985Z,28.67
2023-03-31T00:12:59.975Z,28.61
2023-03-31T00:14:00.096Z,28.65
2023-03-31T00:14:59.978Z,28.69
2023-03-31T00:15:59.961Z,28.66
2023-03-31T00:17:00.067Z,28.65
2023-03-31T00:17:59.999Z,28.65
2023-03-31T00:18:59.954Z,28.62
2023-03-31T00:19:59.959Z,28.62
2023-03-31T00:21:02.287Z,28.63
2023-03-31T00:21:59.977Z,28.63
2023-03-31T00:23:00.032Z,28.62
2023-03-31T00:24:00.005Z,28.63
2023-03-31T00:25:00.063Z,28.63
2023-03-31T00:26:00.007Z,28.63
2023-03-31T00:27:00.033Z,28.63
2023-03-31T00:28:00.037Z,28.60
2023-03-31T00:29:00.086Z,28.67
2023-03-31T00:30:00.122Z,28.63
2023-03-31T00:31:00.104Z,28.60
2023-03-31T00:32:00.143Z,28.62
2023-03-31T00:33:00.162Z,28.62
2023-03-31T00:34:00.125Z,28.65
2023-03-31T00:35:00.130Z,28.66
2023-03-31T00:36:00.201Z,28.56
2023-03-31T00:37:00.192Z,28.63
2023-03-31T00:38:00.267Z,28.62
2023-03-31T00:39:00.186Z,28.62
2023-03-31T00:40:00.141Z,28.64
2023-03-31T00:41:00.178Z,28.65
2023-03-31T00:42:00.216Z,28.62
2023-03-31T00:43:00.179Z,28.62
2023-03-31T00:44:00.232Z,28.59
2023-03-31T00:45:00.234Z,28.59
2023-03-31T00:46:00.226Z,28.65
2023-03-31T00:47:00.254Z,28.57
2023-03-31T00:48:00.314Z,28.60
2023-03-31T00:49:00.279Z,28.56
2023-03-31T00:50:00.272Z,28.60
2023-03-31T00:51:00.270Z,28.56
2023-03-31T00:52:00.251Z,28.60
2023-03-31T00:53:00.299Z,28.60
2023-03-31T00:54:00.290Z,28.52
2023-03-31T00:55:00.307Z,28.59
2023-03-31T00:56:00.331Z,28.57
2023-03-31T00:57:00.380Z,28.57
2023-03-31T00:58:00.366Z,28.59
2023-03-31T00:59:00.381Z,28.52
2023-03-31T01:00:00.384Z,28.55
2023-03-31T01:01:00.421Z,28.56
2023-03-31T01:02:00.454Z,28.60
2023-03-31T01:03:00.436Z,28.59
2023-03-31T01:04:00.450Z,28.57
2023-03-31T01:05:00.472Z,28.59
2023-03-31T01:06:00.485Z,28.55
2023-03-31T01:07:00.493Z,28.59
2023-03-31T01:08:00.519Z,28.57
2023-03-31T01:09:00.550Z,28.61
2023-03-31T01:10:00.772Z,28.56
2023-03-31T01:11:00.625Z,28.57
2023-03-31T01:12:00.626Z,28.53
2023-03-31T01:13:00.629Z,28.55
2023-03-31T01:14:00.681Z,28.52
2023-03-31T01:15:00.747Z,28.56
2023-03-31T01:16:00.755Z,28.56
2023-03-31T01:17:00.885Z,28.55
2023-03-31T01:18:00.975Z,28.56
2023-03-31T01:19:00.881Z,28.52
2023-03-31T01:20:00.882Z,28.52
2023-03-31T01:21:00.897Z,28.55
2023-03-31T01:22:00.954Z,28.52
2023-03-31T01:23:01.007Z,28.55
2023-03-31T01:24:01.017Z,28.50
2023-03-31T01:25:01.018Z,28.57
2023-03-31T01:26:01.066Z,28.52
2023-03-31T01:27:01.135Z,28.52
2023-03-31T01:28:01.146Z,28.53
2023-03-31T01:29:01.204Z,28.53
2023-03-31T01:30:01.235Z,28.56
2023-03-31T01:31:01.292Z,28.55
2023-03-31T01:32:01.272Z,28.55
2023-03-31T01:33:01.403Z,28.57
2023-03-31T01:34:01.399Z,28.52
2023-03-31T01:35:01.387Z,28.50
2023-03-31T01:36:01.486Z,28.50
2023-03-31T01:37:01.473Z,28.57
2023-03-31T01:38:01.496Z,28.53
2023-03-31T01:39:01.553Z,28.52
2023-03-31T01:40:01.572Z,28.55
2023-03-31T01:41:01.656Z,28.52
2023-03-31T01:42:01.674Z,28.53
2023-03-31T01:43:01.691Z,28.48
2023-03-31T01:44:01.737Z,28.52
2023-03-31T01:45:01.754Z,28.53
2023-03-31T01:46:01.849Z,28.50
2023-03-31T01:47:01.891Z,28.52
2023-03-31T01:48:01.923Z,28.52
2023-03-31T01:49:01.956Z,28.49
2023-03-31T01:50:02.005Z,28.53
2023-03-31T01:51:02.014Z,28.56
2023-03-31T01:52:02.101Z,28.56
2023-03-31T01:53:02.082Z,28.57
2023-03-31T01:54:02.137Z,28.49
2023-03-31T01:55:02.194Z,28.52
2023-03-31T01:56:02.197Z,28.52
2023-03-31T01:57:02.265Z,28.52
2023-03-31T01:58:02.328Z,28.51
2023-03-31T01:59:02.344Z,28.50
2023-03-31T02:00:02.405Z,28.49
2023-03-31T02:01:02.431Z,28.52
2023-03-31T02:02:02.511Z,28.53
2023-03-31T02:03:02.650Z,28.52
2023-03-31T02:04:02.639Z,28.52
2023-03-31T02:05:02.584Z,28.49
2023-03-31T02:06:02.646Z,28.47
2023-03-31T02:07:02.683Z,28.49
2023-03-31T02:08:02.685Z,28.53
2023-03-31T02:09:02.707Z,28.53
2023-03-31T02:10:02.731Z,28.49
2023-03-31T02:11:02.744Z,28.52
2023-03-31T02:12:02.787Z,28.47
2023-03-31T02:13:02.849Z,28.51
2023-03-31T02:14:02.831Z,28.50
2023-03-31T02:15:02.858Z,28.50
2023-03-31T02:16:03.049Z,28.46
2023-03-31T02:17:02.917Z,28.50
2023-03-31T02:18:03.002Z,28.49
2023-03-31T02:19:02.964Z,28.50
2023-03-31T02:20:02.997Z,28.45
2023-03-31T02:21:03.045Z,28.45
2023-03-31T02:22:03.053Z,28.46
2023-03-31T02:23:03.044Z,28.51
2023-03-31T02:24:03.065Z,28.46
2023-03-31T02:25:03.105Z,28.50
2023-03-31T02:26:03.187Z,28.49
2023-03-31T02:27:03.125Z,28.46
2023-03-31T02:28:03.170Z,28.51
2023-03-31T02:29:03.219Z,28.49
2023-03-31T02:30:03.217Z,28.45
2023-03-31T02:31:03.290Z,28.45
2023-03-31T02:32:03.396Z,28.47
2023-03-31T02:33:03.347Z,28.50
2023-03-31T02:34:03.776Z,28.50
2023-03-31T02:35:03.343Z,28.49
2023-03-31T02:36:03.434Z,28.49
2023-03-31T02:37:03.419Z,28.46
2023-03-31T02:38:03.402Z,28.47
2023-03-31T02:39:03.441Z,28.48
2023-03-31T02:40:03.619Z,28.49
2023-03-31T02:41:03.627Z,28.49
2023-03-31T02:42:03.646Z,28.45
2023-03-31T02:43:03.630Z,28.46
2023-03-31T02:44:03.663Z,28.46
2023-03-31T02:45:03.709Z,28.43
2023-03-31T02:46:03.725Z,28.46
2023-03-31T02:47:03.736Z,28.46
2023-03-31T02:48:03.723Z,28.50
2023-03-31T02:49:03.875Z,28.44
2023-03-31T02:50:03.807Z,28.43
2023-03-31T02:51:03.806Z,28.41
2023-03-31T02:52:03.853Z,28.47
2023-03-31T02:53:03.830Z,28.48
2023-03-31T02:54:03.926Z,28.43
2023-03-31T02:55:03.966Z,28.47
2023-03-31T02:56:04.110Z,28.45
2023-03-31T02:57:03.977Z,28.48
2023-03-31T02:58:04.006Z,28.47
2023-03-31T02:59:04.013Z,28.43
2023-03-31T03:00:04.076Z,28.46
2023-03-31T03:01:04.099Z,28.41
2023-03-31T03:02:04.096Z,28.44
2023-03-31T03:03:04.202Z,28.47
2023-03-31T03:04:04.170Z,28.47
2023-03-31T03:05:04.156Z,28.44
2023-03-31T03:06:05.556Z,28.43
2023-03-31T03:07:04.253Z,28.47
2023-03-31T03:08:04.322Z,28.45
2023-03-31T03:09:04.323Z,28.43
2023-03-31T03:10:04.333Z,28.45
2023-03-31T03:11:04.411Z,28.43
2023-03-31T03:12:04.370Z,28.45
2023-03-31T03:13:04.379Z,28.46
2023-03-31T03:14:04.460Z,28.48
2023-03-31T03:15:04.487Z,28.41
2023-03-31T03:16:04.718Z,28.51
2023-03-31T03:17:04.511Z,28.44
2023-03-31T03:18:04.615Z,28.44
2023-03-31T03:19:04.590Z,28.43
2023-03-31T03:20:04.640Z,28.41
2023-03-31T03:21:04.640Z,28.44
2023-03-31T03:22:05.564Z,28.40
2023-03-31T03:23:04.654Z,28.47
2023-03-31T03:24:04.774Z,28.43
2023-03-31T03:25:04.739Z,28.37
2023-03-31T03:26:05.016Z,28.43
2023-03-31T03:27:04.780Z,28.37
2023-03-31T03:28:04.813Z,28.49
2023-03-31T03:29:04.857Z,28.36
2023-03-31T03:30:04.887Z,28.45
2023-03-31T03:31:04.988Z,28.41
2023-03-31T03:32:04.927Z,28.44
2023-03-31T03:33:04.997Z,28.45
2023-03-31T03:34:04.963Z,28.43
2023-03-31T03:35:05.030Z,28.43
2023-03-31T03:36:05.259Z,28.47
2023-03-31T03:37:05.046Z,28.43
2023-03-31T03:38:05.142Z,28.41
2023-03-31T03:39:05.069Z,28.43
2023-03-31T03:40:05.149Z,28.44
2023-03-31T03:41:05.170Z,28.43
2023-03-31T03:42:05.206Z,28.41
2023-03-31T03:43:05.207Z,28.38
2023-03-31T03:44:05.218Z,28.41
2023-03-31T03:45:05.266Z,28.43
2023-03-31T03:46:05.667Z,28.43
2023-03-31T03:47:05.336Z,28.41
2023-03-31T03:48:05.463Z,28.43
2023-03-31T03:49:05.417Z,28.45
2023-03-31T03:50:05.441Z,28.38
2023-03-31T03:51:05.507Z,28.47
2023-03-31T03:52:05.462Z,28.44
2023-03-31T03:53:05.527Z,28.40
2023-03-31T03:54:05.549Z,28.45
2023-03-31T03:55:05.519Z,28.43
2023-03-31T03:56:05.854Z,28.43
2023-03-31T03:57:05.745Z,28.41
2023-03-31T03:58:05.611Z,28.42
2023-03-31T03:59:05.732Z,28.37
2023-03-31T04:00:05.761Z,28.38
2023-03-31T04:01:05.792Z,28.38
2023-03-31T04:02:06.185Z,28.41
2023-03-31T04:03:05.881Z,28.40
2023-03-31T04:04:05.869Z,28.36
2023-03-31T04:05:05.864Z,28.30
2023-03-31T04:06:06.149Z,28.15
2023-03-31T04:07:05.946Z,28.14
2023-03-31T04:08:05.918Z,28.07
2023-03-31T04:09:05.998Z,28.01
2023-03-31T04:10:06.080Z,27.93
2023-03-31T04:11:06.069Z,27.90
2023-03-31T04:12:06.081Z,27.90
2023-03-31T04:13:06.185Z,27.83
2023-03-31T04:14:06.139Z,27.76
2023-03-31T04:15:06.228Z,27.80
2023-03-31T04:16:06.468Z,27.79
2023-03-31T04:17:06.221Z,27.71
2023-03-31T04:18:06.312Z,27.66
2023-03-31T04:19:06.329Z,27.71
2023-03-31T04:20:06.367Z,27.68
2023-03-31T04:21:06.441Z,27.62
2023-03-31T04:22:06.486Z,27.60
2023-03-31T04:23:06.461Z,27.59
2023-03-31T04:24:06.455Z,27.54
2023-03-31T04:25:06.542Z,27.55
2023-03-31T04:26:06.706Z,27.54
2023-03-31T04:27:06.592Z,27.48
2023-03-31T04:28:06.628Z,27.55
2023-03-31T04:29:06.692Z,27.51
2023-03-31T04:30:06.684Z,27.44
2023-03-31T04:31:06.715Z,27.44
2023-03-31T04:32:06.846Z,27.50
2023-03-31T04:33:06.886Z,27.46
2023-03-31T04:34:06.858Z,27.55
2023-03-31T04:35:06.875Z,27.54
2023-03-31T04:36:07.019Z,27.54
2023-03-31T04:37:06.969Z,27.59
2023-03-31T04:38:06.963Z,27.51
2023-03-31T04:39:07.023Z,27.53
2023-03-31T04:40:07.017Z,27.53
2023-03-31T04:41:07.106Z,27.54
2023-03-31T04:42:07.110Z,27.54
2023-03-31T04:43:07.126Z,27.55
2023-03-31T04:44:07.191Z,27.57
2023-03-31T04:45:07.227Z,27.53
2023-03-31T04:46:07.462Z,27.55
2023-03-31T04:47:07.277Z,27.61
2023-03-31T04:48:07.325Z,27.57
2023-03-31T04:49:07.335Z,27.54
2023-03-31T04:50:07.464Z,27.54
2023-03-31T04:51:07.377Z,27.55
2023-03-31T04:52:07.906Z,27.58
2023-03-31T04:53:07.482Z,27.57
2023-03-31T04:54:07.478Z,27.58
2023-03-31T04:55:07.612Z,27.61
2023-03-31T04:56:07.954Z,27.61
2023-03-31T04:57:07.623Z,27.57
2023-03-31T04:58:07.622Z,27.57
2023-03-31T04:59:07.639Z,27.55
2023-03-31T05:00:07.729Z,27.55
2023-03-31T05:01:07.801Z,27.57
2023-03-31T05:02:07.807Z,27.58
2023-03-31T05:03:07.932Z,27.58
2023-03-31T05:04:07.856Z,27.58
2023-03-31T05:05:07.917Z,27.57
2023-03-31T05:06:08.506Z,27.60
2023-03-31T05:07:08.000Z,27.60
2023-03-31T05:08:08.006Z,27.65
2023-03-31T05:09:08.048Z,27.60
2023-03-31T05:10:08.022Z,27.65
2023-03-31T05:11:08.054Z,27.58
2023-03-31T05:12:08.148Z,27.58
2023-03-31T05:13:08.146Z,27.58
2023-03-31T05:14:08.158Z,27.60
2023-03-31T05:15:08.192Z,27.55
2023-03-31T05:16:08.493Z,27.60
2023-03-31T05:17:08.280Z,27.61
2023-03-31T05:18:08.398Z,27.61
2023-03-31T05:19:08.378Z,27.58
2023-03-31T05:20:08.470Z,27.65
2023-03-31T05:21:08.402Z,27.58
2023-03-31T05:22:08.481Z,27.64
2023-03-31T05:23:08.476Z,27.60
2023-03-31T05:24:08.531Z,27.64
2023-03-31T05:25:08.573Z,27.61
2023-03-31T05:26:08.908Z,27.61
2023-03-31T05:27:08.612Z,27.61
2023-03-31T05:28:08.641Z,27.60
2023-03-31T05:29:08.665Z,27.61
2023-03-31T05:30:08.676Z,27.61
2023-03-31T05:31:08.718Z,27.62
2023-03-31T05:32:08.738Z,27.64
2023-03-31T05:33:08.808Z,28.09
2023-03-31T05:34:08.833Z,28.68
2023-03-31T05:35:08.835Z,28.23
2023-03-31T05:36:09.551Z,28.91
2023-03-31T05:37:08.912Z,28.17
2023-03-31T05:38:09.050Z,28.03
2023-03-31T05:39:08.967Z,28.20
2023-03-31T05:40:09.049Z,28.27
2023-03-31T05:41:09.536Z,28.12
2023-03-31T05:42:09.168Z,28.17
2023-03-31T05:43:09.152Z,28.11
2023-03-31T05:44:09.374Z,27.90
2023-03-31T05:45:09.496Z,28.45
2023-03-31T05:46:09.452Z,28.41
2023-03-31T05:47:09.219Z,28.19
2023-03-31T05:48:09.974Z,28.18
2023-03-31T05:49:09.297Z,28.93
2023-03-31T05:50:09.511Z,29.11
2023-03-31T05:51:09.328Z,29.19
2023-03-31T05:52:09.320Z,29.34
2023-03-31T05:53:09.258Z,29.43
2023-03-31T05:54:09.366Z,29.55
2023-03-31T05:55:10.486Z,29.46
2023-03-31T05:56:09.657Z,29.56
2023-03-31T05:57:10.419Z,29.81
2023-03-31T05:58:09.532Z,29.84
2023-03-31T05:59:09.592Z,29.89
2023-03-31T06:00:09.695Z,30.15
2023-03-31T06:01:10.082Z,30.13
2023-03-31T06:02:09.692Z,30.04
2023-03-31T06:03:09.904Z,29.79
2023-03-31T06:04:09.795Z,29.70
2023-03-31T06:05:09.731Z,29.86
2023-03-31T06:06:09.736Z,29.84
2023-03-31T06:07:09.727Z,29.86
2023-03-31T06:08:09.741Z,29.92
2023-03-31T06:09:09.736Z,30.18
2023-03-31T06:10:09.757Z,30.13
2023-03-31T06:11:09.739Z,29.99
2023-03-31T06:12:09.894Z,29.93
2023-03-31T06:13:09.886Z,29.95
2023-03-31T06:14:09.870Z,29.91
2023-03-31T06:15:09.926Z,29.66
2023-03-31T06:16:09.773Z,29.48
2023-03-31T06:17:09.904Z,29.11
2023-03-31T06:18:09.754Z,29.45
2023-03-31T06:19:09.720Z,29.83
2023-03-31T06:20:24.091Z,29.85
2023-03-31T06:21:10.783Z,30.00
2023-03-31T06:22:09.870Z,29.99
2023-03-31T06:23:10.559Z,30.00
2023-03-31T06:24:10.461Z,30.09
2023-03-31T06:25:09.684Z,29.97
2023-03-31T06:26:09.686Z,30.08
2023-03-31T06:27:09.720Z,30.01
2023-03-31T06:28:09.678Z,29.90
2023-03-31T06:29:09.668Z,29.82
2023-03-31T06:30:10.406Z,29.82
2023-03-31T06:31:09.861Z,29.90
2023-03-31T06:32:09.750Z,29.84
2023-03-31T06:33:09.743Z,29.86
2023-03-31T06:34:09.898Z,29.91
2023-03-31T06:35:09.938Z,30.01
2023-03-31T06:36:09.936Z,30.12
2023-03-31T06:37:10.059Z,30.12
2023-03-31T06:38:10.840Z,30.03
2023-03-31T06:39:10.071Z,30.30
2023-03-31T06:40:10.206Z,30.09
2023-03-31T06:41:10.247Z,29.76
2023-03-31T06:42:10.197Z,29.72
2023-03-31T06:43:10.207Z,29.93
2023-03-31T06:44:10.219Z,29.90
2023-03-31T06:45:10.429Z,29.86
2023-03-31T06:46:10.544Z,29.91
2023-03-31T06:47:10.348Z,30.12
2023-03-31T06:48:10.348Z,29.98
2023-03-31T06:49:10.437Z,30.04
2023-03-31T06:50:10.444Z,29.94
2023-03-31T06:51:10.462Z,29.85
2023-03-31T06:52:10.521Z,29.91
2023-03-31T06:53:10.575Z,30.04
2023-03-31T06:54:10.661Z,30.04
2023-03-31T06:55:10.723Z,30.01
2023-03-31T06:56:10.764Z,30.03
2023-03-31T06:57:10.828Z,29.99
2023-03-31T06:58:10.877Z,29.92
2023-03-31T06:59:10.933Z,29.87
2023-03-31T07:00:10.996Z,29.84
2023-03-31T07:01:11.290Z,29.83
2023-03-31T07:02:11.347Z,29.80
2023-03-31T07:03:11.246Z,29.87
2023-03-31T07:04:11.267Z,29.82
2023-03-31T07:05:11.345Z,29.87
2023-03-31T07:06:11.419Z,29.85
2023-03-31T07:07:12.419Z,29.68
2023-03-31T07:08:11.501Z,29.67
2023-03-31T07:09:11.573Z,29.70
2023-03-31T07:10:11.686Z,29.69
2023-03-31T07:11:11.759Z,29.67
2023-03-31T07:12:11.691Z,29.64
2023-03-31T07:13:11.811Z,29.63
2023-03-31T07:14:11.826Z,29.61
2023-03-31T07:15:11.928Z,29.65
2023-03-31T07:16:11.940Z,29.57
2023-03-31T07:17:11.965Z,29.54
2023-03-31T07:18:12.036Z,29.54
2023-03-31T07:19:12.098Z,29.44
2023-03-31T07:20:12.152Z,29.44
2023-03-31T07:21:12.336Z,29.51
2023-03-31T07:22:12.284Z,29.60
2023-03-31T07:23:12.293Z,29.69
2023-03-31T07:24:12.326Z,29.66
2023-03-31T07:25:12.390Z,29.63
2023-03-31T07:26:12.408Z,29.59
2023-03-31T07:27:12.465Z,29.57
2023-03-31T07:28:12.625Z,29.52
2023-03-31T07:29:12.927Z,29.94
2023-03-31T07:30:12.577Z,29.86
2023-03-31T07:31:12.697Z,30.25
2023-03-31T07:32:12.824Z,30.46
2023-03-31T07:33:12.755Z,30.19
2023-03-31T07:34:12.966Z,30.28
2023-03-31T07:35:12.915Z,30.16
2023-03-31T07:36:14.138Z,29.79
2023-03-31T07:37:12.823Z,29.49
2023-03-31T07:38:12.829Z,29.51
2023-03-31T07:39:12.917Z,29.19
2023-03-31T07:40:12.955Z,29.29
2023-03-31T07:41:12.982Z,29.32
2023-03-31T07:42:12.923Z,29.32
2023-03-31T07:43:13.057Z,29.41
2023-03-31T07:44:12.922Z,29.37
2023-03-31T07:45:13.073Z,29.39
2023-03-31T07:46:13.002Z,29.34
2023-03-31T07:47:12.964Z,29.37
2023-03-31T07:48:13.002Z,29.41
2023-03-31T07:49:12.981Z,29.45
2023-03-31T07:50:12.972Z,29.39
2023-03-31T07:51:12.985Z,29.22
2023-03-31T07:52:13.034Z,29.27
2023-03-31T07:53:13.013Z,29.22
2023-03-31T07:54:13.113Z,29.30
2023-03-31T07:55:13.443Z,29.31
2023-03-31T07:56:13.129Z,29.32
2023-03-31T07:57:13.177Z,29.29
2023-03-31T07:58:13.178Z,29.29
2023-03-31T07:59:13.237Z,29.25
2023-03-31T08:00:13.242Z,29.26
2023-03-31T08:01:13.289Z,29.34
2023-03-31T08:02:13.405Z,29.35
2023-03-31T08:03:13.408Z,29.33
2023-03-31T08:04:13.521Z,29.49
2023-03-31T08:05:13.478Z,29.48
2023-03-31T08:06:13.527Z,29.48
2023-03-31T08:07:13.599Z,29.67
2023-03-31T08:08:13.668Z,29.74
2023-03-31T08:09:13.647Z,29.68
2023-03-31T08:10:13.716Z,29.68
2023-03-31T08:11:13.719Z,29.77
2023-03-31T08:12:13.664Z,29.80
2023-03-31T08:13:13.737Z,29.97
2023-03-31T08:14:13.959Z,30.20
2023-03-31T08:15:13.684Z,30.38
2023-03-31T08:16:13.810Z,30.45
2023-03-31T08:17:13.801Z,30.57
2023-03-31T08:18:13.843Z,30.48
2023-03-31T08:19:13.800Z,30.53
2023-03-31T08:20:13.823Z,30.52
2023-03-31T08:21:13.853Z,30.50
2023-03-31T08:22:13.855Z,30.58
2023-03-31T08:23:14.540Z,30.67
2023-03-31T08:24:13.913Z,30.67
2023-03-31T08:25:13.924Z,30.77
2023-03-31T08:26:16.368Z,30.96
2023-03-31T08:27:13.945Z,31.32
2023-03-31T08:28:13.982Z,31.29
2023-03-31T08:29:14.506Z,31.89
2023-03-31T08:30:15.345Z,31.98
2023-03-31T08:31:13.985Z,32.03
2023-03-31T08:32:13.895Z,32.20
2023-03-31T08:33:13.916Z,32.24
2023-03-31T08:34:13.929Z,32.31
2023-03-31T08:35:13.907Z,32.38
2023-03-31T08:36:14.019Z,32.45
2023-03-31T08:37:13.943Z,32.43
2023-03-31T08:38:13.868Z,32.43
2023-03-31T08:39:13.850Z,32.27
2023-03-31T08:40:13.917Z,32.16
2023-03-31T08:41:13.928Z,32.28
2023-03-31T08:42:15.925Z,32.73
2023-03-31T08:43:13.865Z,33.59
2023-03-31T08:44:14.455Z,33.41
2023-03-31T08:45:14.431Z,33.35
2023-03-31T08:46:14.398Z,33.41
2023-03-31T08:47:14.172Z,33.46
2023-03-31T08:48:14.880Z,33.27
2023-03-31T08:49:14.199Z,33.26
2023-03-31T08:50:14.027Z,33.49
2023-03-31T08:51:13.892Z,33.35
2023-03-31T08:52:13.842Z,33.23
2023-03-31T08:53:14.021Z,33.24
2023-03-31T08:54:15.211Z,33.03
2023-03-31T08:55:14.057Z,32.82
2023-03-31T08:56:14.092Z,32.71
2023-03-31T08:57:14.378Z,32.60
2023-03-31T08:58:14.234Z,32.62
2023-03-31T08:59:14.184Z,32.28
2023-03-31T09:00:14.214Z,32.24
2023-03-31T09:01:14.370Z,32.15
2023-03-31T09:02:14.360Z,32.07
2023-03-31T09:03:14.447Z,32.02
2023-03-31T09:04:15.230Z,31.78
2023-03-31T09:05:14.304Z,31.67
2023-03-31T09:06:14.437Z,31.55
2023-03-31T09:07:14.295Z,31.51
2023-03-31T09:08:14.334Z,31.38
2023-03-31T09:09:14.376Z,31.29
2023-03-31T09:10:14.334Z,31.18
2023-03-31T09:11:14.388Z,31.12
2023-03-31T09:12:14.450Z,31.14
2023-03-31T09:13:14.503Z,31.05
2023-03-31T09:14:14.553Z,30.98
2023-03-31T09:15:16.183Z,31.09
2023-03-31T09:16:16.312Z,31.04
2023-03-31T09:17:14.891Z,31.00
2023-03-31T09:18:14.805Z,31.11
2023-03-31T09:19:14.842Z,31.19
2023-03-31T09:20:14.942Z,30.93
2023-03-31T09:21:14.959Z,31.04
2023-03-31T09:22:14.962Z,31.09
2023-03-31T09:23:15.023Z,30.93
2023-03-31T09:24:15.146Z,30.99
2023-03-31T09:25:15.050Z,30.92
2023-03-31T09:26:15.069Z,30.87
2023-03-31T09:27:15.101Z,30.79
2023-03-31T09:28:15.122Z,30.81
2023-03-31T09:29:15.539Z,30.65
2023-03-31T09:30:15.180Z,30.58
2023-03-31T09:31:15.267Z,30.55
2023-03-31T09:32:15.276Z,30.81
2023-03-31T09:33:15.226Z,30.82
2023-03-31T09:34:15.428Z,30.62
2023-03-31T09:35:15.338Z,30.57
2023-03-31T09:36:15.361Z,30.63
2023-03-31T09:37:15.368Z,30.18
2023-03-31T09:38:15.531Z,30.27
2023-03-31T09:39:15.545Z,30.28
2023-03-31T09:40:15.559Z,30.51
2023-03-31T09:41:15.724Z,30.83
2023-03-31T09:42:15.688Z,30.91
2023-03-31T09:43:15.687Z,30.90
2023-03-31T09:44:15.803Z,30.86
2023-03-31T09:45:15.860Z,30.99
2023-03-31T09:46:16.112Z,31.34
2023-03-31T09:47:15.941Z,31.09
2023-03-31T09:48:15.906Z,30.96
2023-03-31T09:49:15.979Z,30.94
2023-03-31T09:50:16.954Z,30.97
2023-03-31T09:51:16.499Z,30.96
2023-03-31T09:52:16.064Z,31.07
2023-03-31T09:53:16.076Z,30.98
2023-03-31T09:54:19.041Z,30.93
2023-03-31T09:55:22.636Z,30.86
2023-03-31T09:56:17.093Z,30.80
2023-03-31T09:57:16.179Z,30.74
2023-03-31T09:58:16.028Z,30.42
2023-03-31T09:59:16.010Z,30.49
2023-03-31T10:00:16.942Z,30.50
2023-03-31T10:01:16.019Z,30.52
2023-03-31T10:02:16.054Z,30.45
2023-03-31T10:03:16.033Z,30.18
2023-03-31T10:04:16.063Z,30.25
2023-03-31T10:05:15.954Z,30.15
2023-03-31T10:06:16.027Z,29.98
2023-03-31T10:07:15.948Z,29.50
2023-03-31T10:08:19.904Z,29.56
2023-03-31T10:09:15.955Z,29.64
2023-03-31T10:10:16.093Z,29.74
2023-03-31T10:11:15.957Z,29.93
2023-03-31T10:12:16.007Z,29.81
2023-03-31T10:13:15.900Z,29.80
2023-03-31T10:14:15.954Z,29.80
2023-03-31T10:15:15.889Z,29.62
2023-03-31T10:16:16.040Z,29.67
2023-03-31T10:17:15.913Z,29.69
2023-03-31T10:18:15.909Z,29.67
2023-03-31T10:19:15.953Z,29.70
2023-03-31T10:20:15.908Z,29.76
2023-03-31T10:21:15.872Z,29.82
2023-03-31T10:22:15.865Z,29.88
2023-03-31T10:23:15.881Z,29.86
2023-03-31T10:24:15.913Z,29.88
2023-03-31T10:25:15.897Z,29.69
2023-03-31T10:26:15.807Z,29.74
2023-03-31T10:27:16.663Z,29.69
2023-03-31T10:28:15.921Z,29.67
2023-03-31T10:29:16.011Z,29.62
2023-03-31T10:30:16.596Z,29.72
2023-03-31T10:31:15.822Z,29.77
2023-03-31T10:32:15.770Z,29.78
2023-03-31T10:33:22.879Z,29.81
2023-03-31T10:34:16.860Z,29.89
2023-03-31T10:35:15.816Z,29.89
2023-03-31T10:36:15.820Z,29.79
2023-03-31T10:37:15.688Z,29.80
2023-03-31T10:38:15.765Z,29.66
2023-03-31T10:39:15.770Z,29.23
2023-03-31T10:40:15.675Z,29.33
2023-03-31T10:41:15.781Z,28.86
2023-03-31T10:42:15.698Z,28.70
2023-03-31T10:43:15.693Z,28.79
2023-03-31T10:44:15.682Z,29.00
2023-03-31T10:45:26.094Z,29.15
2023-03-31T10:46:16.695Z,29.33
2023-03-31T10:47:15.637Z,29.47
2023-03-31T10:48:15.635Z,29.46
2023-03-31T10:49:15.630Z,29.40
2023-03-31T10:50:15.611Z,28.86
2023-03-31T10:51:15.654Z,29.08
2023-03-31T10:52:15.642Z,29.04
2023-03-31T10:53:15.751Z,29.12
2023-03-31T10:54:15.629Z,29.41
2023-03-31T10:55:15.584Z,29.13
2023-03-31T10:56:15.619Z,29.21
2023-03-31T10:57:15.639Z,29.36
2023-03-31T10:58:15.590Z,29.11
2023-03-31T10:59:15.534Z,29.32
2023-03-31T11:00:16.459Z,29.63
2023-03-31T11:01:15.647Z,29.63
2023-03-31T11:02:15.530Z,29.62
2023-03-31T11:03:15.595Z,29.54
2023-03-31T11:04:16.035Z,29.62
2023-03-31T11:05:15.518Z,29.60
2023-03-31T11:06:15.476Z,29.52
2023-03-31T11:07:15.526Z,29.55
2023-03-31T11:08:15.714Z,29.73
2023-03-31T11:09:15.541Z,29.64
2023-03-31T11:10:15.588Z,29.67
2023-03-31T11:11:15.573Z,29.64
2023-03-31T11:12:15.593Z,29.74
2023-03-31T11:13:15.594Z,30.07
2023-03-31T11:14:15.621Z,30.12
2023-03-31T11:15:15.994Z,30.50
2023-03-31T11:16:16.264Z,29.88
2023-03-31T11:17:15.686Z,29.99
2023-03-31T11:18:15.661Z,29.91
2023-03-31T11:19:15.631Z,29.88
2023-03-31T11:20:16.538Z,29.98
2023-03-31T11:21:15.706Z,29.98
2023-03-31T11:22:15.754Z,29.95
2023-03-31T11:23:15.747Z,29.98
2023-03-31T11:24:15.775Z,29.87
2023-03-31T11:25:15.788Z,29.90
2023-03-31T11:26:15.866Z,29.89
2023-03-31T11:27:15.869Z,29.82
2023-03-31T11:28:15.904Z,29.85
2023-03-31T11:29:15.940Z,29.85
2023-03-31T11:30:15.941Z,29.85
2023-03-31T11:31:16.022Z,29.81
2023-03-31T11:32:16.267Z,29.77
2023-03-31T11:33:16.034Z,29.69
2023-03-31T11:34:16.014Z,29.67
2023-03-31T11:35:16.059Z,29.66
2023-03-31T11:36:16.104Z,29.63
2023-03-31T11:37:16.100Z,29.63
2023-03-31T11:38:16.268Z,29.60
2023-03-31T11:39:16.194Z,29.68
2023-03-31T11:40:16.299Z,29.64
2023-03-31T11:41:16.263Z,29.65
2023-03-31T11:42:16.381Z,29.65
2023-03-31T11:43:16.376Z,29.57
2023-03-31T11:44:16.392Z,29.57
2023-03-31T11:45:16.396Z,29.58
2023-03-31T11:46:16.571Z,29.58
2023-03-31T11:47:16.509Z,29.61
2023-03-31T11:48:16.618Z,29.64
2023-03-31T11:49:16.582Z,29.64
2023-03-31T11:50:16.675Z,29.58
2023-03-31T11:51:16.680Z,29.64
2023-03-31T11:52:16.714Z,29.63
2023-03-31T11:53:16.765Z,29.69
2023-03-31T11:54:16.829Z,29.67
2023-03-31T11:55:16.846Z,29.59
2023-03-31T11:56:16.903Z,29.65
2023-03-31T11:57:16.901Z,29.61
2023-03-31T11:58:16.921Z,29.61
2023-03-31T11:59:16.966Z,29.64
2023-03-31T12:00:17.005Z,29.58
2023-03-31T12:01:17.012Z,29.58
2023-03-31T12:02:17.074Z,29.58
2023-03-31T12:03:17.239Z,29.59
2023-03-31T12:04:17.173Z,29.59
2023-03-31T12:05:17.161Z,29.61
2023-03-31T12:06:17.545Z,29.55
2023-03-31T12:07:17.194Z,29.51
2023-03-31T12:08:17.357Z,29.51
2023-03-31T12:09:17.339Z,29.57
2023-03-31T12:10:17.323Z,29.55
2023-03-31T12:11:17.385Z,29.59
2023-03-31T12:12:17.431Z,29.61
2023-03-31T12:13:17.426Z,29.64
2023-03-31T12:14:17.444Z,29.59
2023-03-31T12:15:17.513Z,29.61
2023-03-31T12:16:17.551Z,29.59
2023-03-31T12:17:17.576Z,29.60
2023-03-31T12:18:17.653Z,29.55
2023-03-31T12:19:17.655Z,29.58
2023-03-31T12:20:17.717Z,29.55
2023-03-31T12:21:17.720Z,29.59
2023-03-31T12:22:17.772Z,29.59
2023-03-31T12:23:17.779Z,29.63
2023-03-31T12:24:17.860Z,29.63
2023-03-31T12:25:17.925Z,29.64
2023-03-31T12:26:17.902Z,29.66
2023-03-31T12:27:17.960Z,29.66
2023-03-31T12:28:18.015Z,29.70
2023-03-31T12:29:18.018Z,29.63
2023-03-31T12:30:18.110Z,29.62
2023-03-31T12:31:18.151Z,29.69
2023-03-31T12:32:18.164Z,29.64
2023-03-31T12:33:18.168Z,29.66
2023-03-31T12:34:18.226Z,29.66
2023-03-31T12:35:18.544Z,29.67
2023-03-31T12:36:18.310Z,29.64
2023-03-31T12:37:18.289Z,29.67
2023-03-31T12:38:18.393Z,29.66
2023-03-31T12:39:18.362Z,29.71
2023-03-31T12:40:18.453Z,29.75
2023-03-31T12:41:18.483Z,29.69
2023-03-31T12:42:18.585Z,29.70
2023-03-31T12:43:18.608Z,29.74
2023-03-31T12:44:18.675Z,29.78
2023-03-31T12:45:18.700Z,29.79
2023-03-31T12:46:18.810Z,29.82
2023-03-31T12:47:18.833Z,29.77
2023-03-31T12:48:18.880Z,29.81
2023-03-31T12:49:18.929Z,29.79
2023-03-31T12:50:18.970Z,29.82
2023-03-31T12:51:19.115Z,29.80
2023-03-31T12:52:19.165Z,29.83
2023-03-31T12:53:19.165Z,29.76